Time;durP1;ratioP1;P1;durP2;ratioP2;P2;SDS_P1;SDS_P2;PMS_P1;PMS_P2;Temp;Humidity;BMP_temperature;BMP_pressure;BME280_temperature;BME280_humidity;BME280_pressure;Samples;Min_cycle;Max_cycle;Signal;HPM_P1;HPM_P2
2022/08/15 00:00:42;;;;;;;12.73;11.43;;;;;;;21.79;64.04;100147.97;5072767;28;20028;-45
2022/08/15 00:03:26;;;;;;;12.50;11.25;;;;;;;21.71;64.36;100141.16;5071906;28;20027;-45
2022/08/15 00:05:52;;;;;;;11.98;10.70;;;;;;;21.61;65.73;100144.94;5072711;28;20036;-46
2022/08/15 00:08:18;;;;;;;13.15;11.10;;;;;;;21.62;65.22;100141.44;5071618;28;20048;-45
2022/08/15 00:10:47;;;;;;;16.17;11.48;;;;;;;21.70;64.55;100156.94;5072661;28;20025;-45
2022/08/15 00:13:22;;;;;;;13.68;10.77;;;;;;;21.80;63.99;100154.94;5072580;28;20020;-48
2022/08/15 00:15:49;;;;;;;13.07;11.35;;;;;;;21.57;65.82;100148.56;5071825;28;20380;-46
2022/08/15 00:18:15;;;;;;;13.43;10.75;;;;;;;21.65;65.11;100164.97;5072524;28;20053;-47
2022/08/15 00:20:42;;;;;;;13.77;10.80;;;;;;;21.69;64.64;100169.22;5072469;28;20028;-46
2022/08/15 00:23:14;;;;;;;12.13;10.88;;;;;;;21.50;66.28;100152.22;5071741;28;20047;-49
2022/08/15 00:25:46;;;;;;;12.75;11.45;;;;;;;21.53;66.07;100150.38;5072441;28;20108;-46
2022/08/15 00:28:11;;;;;;;13.45;12.10;;;;;;;21.42;66.13;100148.94;5072476;28;20041;-45
2022/08/15 00:30:38;;;;;;;13.95;12.55;;;;;;;21.28;66.80;100150.19;5071687;28;20169;-45
2022/08/15 00:33:05;;;;;;;14.63;12.70;;;;;;;21.18;67.48;100151.31;5072324;28;20058;-46
2022/08/15 00:35:36;;;;;;;15.82;13.88;;;;;;;21.26;67.28;100151.13;5072119;28;20029;-46
2022/08/15 00:38:11;;;;;;;14.45;13.00;;;;;;;21.31;66.21;100155.31;5072435;28;20017;-45
2022/08/15 00:43:22;;;;;;;15.55;13.80;;;;;;;21.17;66.83;100153.06;5075000;28;20089;-47
2022/08/15 00:45:48;;;;;;;15.50;13.52;;;;;;;21.07;67.79;100159.47;5075811;28;20352;-46
2022/08/15 00:50:58;;;;;;;15.30;13.70;;;;;;;20.86;68.53;100148.59;5075430;28;20106;-45
2022/08/15 00:53:23;;;;;;;15.75;14.25;;;;;;;20.77;69.22;100140.09;5075685;28;20115;-46
2022/08/15 00:55:49;;;;;;;19.05;15.68;;;;;;;20.54;70.30;100144.94;5075742;28;20064;-46
2022/08/15 00:58:14;;;;;;;16.73;14.90;;;;;;;20.54;70.20;100139.72;5074900;28;20032;-46
2022/08/15 01:00:45;;;;;;;17.33;15.25;;;;;;;20.39;70.94;100140.91;5075758;28;20074;-45
2022/08/15 01:03:17;;;;;;;18.27;15.57;;;;;;;20.37;71.07;100142.72;5075991;28;20020;-45
2022/08/15 01:05:46;;;;;;;17.85;15.80;;;;;;;20.42;71.78;100155.69;5074746;28;20411;-46
2022/08/15 01:08:11;;;;;;;17.77;15.27;;;;;;;20.53;70.84;100151.06;5075613;28;20024;-47
2022/08/15 01:10:38;;;;;;;17.70;14.98;;;;;;;20.49;70.49;100145.94;5057629;28;20052;-44
2022/08/15 01:13:05;;;;;;;17.23;15.43;;;;;;;20.54;70.65;100146.69;5074639;28;20483;-45
2022/08/15 01:15:31;;;;;;;18.10;14.63;;;;;;;20.64;69.64;100144.72;5075147;28;20484;-46
2022/08/15 01:17:57;;;;;;;16.23;14.52;;;;;;;20.79;68.97;100143.56;5075589;28;20050;-47
2022/08/15 01:20:27;;;;;;;16.38;14.73;;;;;;;20.88;69.20;100140.69;5074260;28;20427;-46
2022/08/15 01:23:01;;;;;;;15.13;13.57;;;;;;;20.96;68.08;100141.38;5075195;28;20028;-45
2022/08/15 01:25:33;;;;;;;22.42;15.07;;;;;;;20.99;67.38;100141.31;5074506;28;20029;-46
2022/08/15 01:28:03;;;;;;;16.02;14.05;;;;;;;20.96;67.28;100141.38;5075453;28;20020;-47
2022/08/15 01:30:37;;;;;;;17.80;14.23;;;;;;;20.83;67.85;100132.94;5075069;28;20036;-45
2022/08/15 01:33:03;;;;;;;16.85;13.60;;;;;;;20.89;67.53;100137.19;5074326;28;20036;-46
2022/08/15 01:35:29;;;;;;;15.57;13.27;;;;;;;20.89;67.03;100134.56;5074908;28;20025;-45
2022/08/15 01:37:56;;;;;;;17.33;13.63;;;;;;;20.93;66.34;100137.97;5075087;28;20052;-46
2022/08/15 01:40:59;;;;;;;13.98;12.63;;;;;;;20.88;66.23;100135.47;5073967;28;20020;-45
2022/08/15 01:43:28;;;;;;;18.17;12.82;;;;;;;20.81;66.83;100134.75;5074803;28;20052;-46
2022/08/15 01:45:56;;;;;;;14.60;13.00;;;;;;;20.79;66.32;100133.94;5074782;28;20383;-49
2022/08/15 01:48:32;;;;;;;15.77;12.30;;;;;;;20.76;66.24;100130.50;5073818;28;20029;-47
2022/08/15 01:51:02;;;;;;;17.33;12.93;;;;;;;20.68;66.06;100136.78;5074863;28;20036;-45
2022/08/15 01:53:35;;;;;;;16.75;12.40;;;;;;;20.75;64.95;100134.91;5074706;28;20032;-46
2022/08/15 01:56:08;;;;;;;15.65;10.95;;;;;;;20.76;64.62;100133.13;5074798;28;20411;-47
2022/08/15 01:58:39;;;;;;;14.75;10.70;;;;;;;20.75;63.32;100142.75;5074344;28;20468;-47
2022/08/15 02:01:09;;;;;;;11.82;10.00;;;;;;;20.75;63.16;100147.13;5073868;28;20021;-46
2022/08/15 02:03:38;;;;;;;12.52;9.75;;;;;;;20.69;62.78;100146.34;5074460;28;20025;-45
2022/08/15 02:06:14;;;;;;;13.02;9.82;;;;;;;20.71;63.02;100147.19;5074634;28;20021;-47
2022/08/15 02:08:41;;;;;;;12.02;9.45;;;;;;;20.64;62.82;100152.59;5073620;28;20549;-45
2022/08/15 02:11:11;;;;;;;11.77;8.70;;;;;;;20.69;62.13;100148.94;5074368;28;20025;-45
2022/08/15 02:13:37;;;;;;;14.05;8.98;;;;;;;20.60;62.11;100153.56;5074141;28;20170;-46
2022/08/15 02:16:03;;;;;;;11.20;7.82;;;;;;;20.63;60.53;100149.13;5073757;28;20043;-45
2022/08/15 02:18:28;;;;;;;9.55;7.78;;;;;;;20.61;60.64;100155.28;5074007;28;20031;-46
2022/08/15 02:20:56;;;;;;;10.75;7.68;;;;;;;20.61;59.81;100150.91;5074269;28;20042;-45
2022/08/15 02:23:22;;;;;;;9.02;6.57;;;;;;;20.61;59.09;100144.81;5073137;28;20032;-45
2022/08/15 02:25:48;;;;;;;11.07;6.60;;;;;;;20.66;58.79;100149.03;5074149;28;20024;-45
2022/08/15 02:28:13;;;;;;;9.35;5.70;;;;;;;20.69;57.82;100148.09;5073803;28;20468;-46
2022/08/15 02:30:39;;;;;;;10.73;6.28;;;;;;;20.64;58.00;100149.97;5073270;28;20031;-45
2022/08/15 02:33:05;;;;;;;6.80;5.28;;;;;;;20.58;57.94;100156.22;5074105;28;20036;-45
2022/08/15 02:35:30;;;;;;;9.20;5.07;;;;;;;20.54;56.99;100147.56;5073719;28;20422;-45
2022/08/15 02:37:58;;;;;;;7.85;4.78;;;;;;;20.58;56.40;100150.97;5073031;28;20337;-45
2022/08/15 02:40:24;;;;;;;10.15;5.30;;;;;;;20.51;56.46;100152.84;5073616;28;20055;-46
2022/08/15 02:42:50;;;;;;;9.50;5.00;;;;;;;20.52;56.12;100151.13;5072828;28;20474;-47
2022/08/15 02:45:15;;;;;;;6.18;4.55;;;;;;;20.51;55.83;100149.38;5073829;28;20036;-45
2022/08/15 02:47:45;;;;;;;6.95;4.57;;;;;;;20.48;55.88;100152.94;5073477;28;20053;-46
2022/08/15 02:50:14;;;;;;;9.18;4.55;;;;;;;20.49;55.75;100151.16;5072830;28;20764;-47
2022/08/15 02:52:42;;;;;;;8.15;4.18;;;;;;;20.47;55.29;100158.22;5073489;28;20033;-45
2022/08/15 02:55:10;;;;;;;7.72;4.00;;;;;;;20.49;55.30;100153.78;5073420;28;20379;-47
2022/08/15 02:57:36;;;;;;;8.02;4.40;;;;;;;20.50;55.04;100163.38;5072398;28;20419;-47
2022/08/15 03:00:07;;;;;;;8.05;3.90;;;;;;;20.52;54.42;100161.59;5073570;28;20158;-47
2022/08/15 03:02:53;;;;;;;5.85;3.50;;;;;;;20.54;54.54;100160.66;5072830;28;20028;-46
2022/08/15 03:05:18;;;;;;;5.10;3.58;;;;;;;20.54;54.35;100155.41;5072516;28;20115;-45
2022/08/15 03:07:44;;;;;;;8.35;3.65;;;;;;;20.58;54.07;100150.09;5073355;28;20547;-45
2022/08/15 03:10:09;;;;;;;11.07;3.60;;;;;;;20.55;54.50;100145.78;5073386;28;20032;-45
2022/08/15 03:12:53;;;;;;;8.75;3.70;;;;;;;20.55;54.12;100149.28;5072237;28;20020;-45
2022/08/15 03:15:24;;;;;;;6.30;3.22;;;;;;;20.54;54.15;100149.31;5073090;28;20013;-45
2022/08/15 03:17:50;;;;;;;5.95;3.30;;;;;;;20.46;54.58;100146.00;5073268;28;20035;-45
2022/08/15 03:20:16;;;;;;;7.88;4.00;;;;;;;20.43;54.42;100148.72;5072097;28;20024;-46
2022/08/15 03:22:47;;;;;;;5.63;3.25;;;;;;;20.34;54.48;100153.25;5073185;28;20035;-45
2022/08/15 03:25:14;;;;;;;6.05;3.47;;;;;;;20.31;54.93;100153.31;5072025;28;20376;-46
2022/08/15 03:27:40;;;;;;;5.63;3.75;;;;;;;20.22;55.09;100157.00;5072879;28;20430;-45
2022/08/15 03:30:09;;;;;;;6.20;3.95;;;;;;;20.19;55.02;100166.66;5073070;28;20596;-45
2022/08/15 03:32:42;;;;;;;6.68;3.47;;;;;;;20.17;55.23;100160.59;5071904;28;20467;-45
2022/08/15 03:35:09;;;;;;;9.02;3.92;;;;;;;20.12;55.17;100163.31;5072897;28;20391;-46
2022/08/15 03:37:34;;;;;;;8.55;3.92;;;;;;;20.12;55.31;100162.47;5072797;28;20024;-46
2022/08/15 03:39:59;;;;;;;8.82;4.25;;;;;;;20.03;55.55;100153.88;5072503;28;20044;-45
2022/08/15 03:42:26;;;;;;;7.20;4.40;;;;;;;20.00;55.44;100153.09;5072678;28;20067;-45
2022/08/15 03:44:52;;;;;;;5.88;3.80;;;;;;;19.96;55.37;100146.19;5072870;28;20383;-44
2022/08/15 03:47:17;;;;;;;9.80;4.18;;;;;;;19.96;55.69;100152.31;5071771;28;20484;-45
2022/08/15 03:49:42;;;;;;;7.85;3.80;;;;;;;19.94;55.67;100148.00;5072548;28;20086;-45
2022/08/15 03:52:08;;;;;;;11.45;4.32;;;;;;;19.95;55.87;100153.19;5072920;28;20024;-45
2022/08/15 03:54:34;;;;;;;10.18;4.07;;;;;;;19.92;55.88;100150.63;5071728;28;20021;-46
2022/08/15 03:56:59;;;;;;;6.10;4.07;;;;;;;19.90;55.99;100152.44;5072763;28;20021;-45
2022/08/15 03:59:24;;;;;;;7.00;4.25;;;;;;;19.91;56.35;100164.63;5072491;28;20041;-46
2022/08/15 04:01:49;;;;;;;8.25;3.92;;;;;;;19.81;56.38;100163.03;5071869;28;20107;-45
2022/08/15 04:04:15;;;;;;;8.10;4.05;;;;;;;19.78;56.35;100168.31;5072679;28;20021;-45
2022/08/15 04:06:40;;;;;;;10.25;4.65;;;;;;;19.73;56.58;100173.66;5072740;28;20108;-45
2022/08/15 04:09:06;;;;;;;6.68;4.15;;;;;;;19.72;56.63;100170.16;5071889;28;20025;-48
2022/08/15 04:11:31;;;;;;;7.35;4.38;;;;;;;19.71;56.56;100167.56;5072273;28;20037;-45
2022/08/15 04:13:57;;;;;;;7.53;4.35;;;;;;;19.61;56.89;100172.09;5076343;28;20074;-46
2022/08/15 04:16:23;;;;;;;7.25;4.75;;;;;;;19.48;57.73;100170.63;5075580;28;20024;-46
2022/08/15 04:18:49;;;;;;;9.38;4.28;;;;;;;19.49;57.82;100170.59;5076423;28;20481;-45
2022/08/15 04:21:14;;;;;;;8.25;4.57;;;;;;;19.48;57.75;100162.78;5076288;28;20100;-46
2022/08/15 04:23:42;;;;;;;7.65;4.47;;;;;;;19.50;57.54;100169.69;5075901;28;20476;-47
2022/08/15 04:26:08;;;;;;;11.52;4.63;;;;;;;19.54;57.48;100173.13;5076517;28;20016;-45
2022/08/15 04:28:34;;;;;;;8.20;4.63;;;;;;;19.48;57.53;100166.25;5075439;28;20536;-49
2022/08/15 04:31:02;;;;;;;7.82;4.97;;;;;;;19.42;58.33;100182.91;5076065;28;20032;-45
2022/08/15 04:33:31;;;;;;;10.20;4.93;;;;;;;19.42;58.55;100190.75;5076208;28;20046;-46
2022/08/15 04:36:10;;;;;;;9.00;4.95;;;;;;;19.41;58.61;100189.00;5075408;28;20376;-45
2022/08/15 04:38:41;;;;;;;7.13;4.93;;;;;;;19.40;58.80;100187.28;5075986;28;20031;-47
2022/08/15 04:41:07;;;;;;;8.02;4.70;;;;;;;19.41;58.96;100180.31;5075969;28;20460;-47
2022/08/15 04:43:34;;;;;;;10.98;4.97;;;;;;;19.45;59.19;100182.00;5074951;28;20027;-47
2022/08/15 04:46:01;;;;;;;9.30;4.85;;;;;;;19.42;59.74;100182.91;5076048;28;20108;-46
2022/08/15 04:48:26;;;;;;;11.65;4.75;;;;;;;19.41;59.63;100175.94;5075864;28;20150;-48
2022/08/15 04:50:54;;;;;;;7.10;4.72;;;;;;;19.43;59.63;100183.75;5075190;28;20115;-46
2022/08/15 04:53:24;;;;;;;12.60;4.65;;;;;;;19.46;60.11;100182.84;5075836;28;20021;-45
2022/08/15 04:55:50;;;;;;;14.43;4.97;;;;;;;19.46;60.32;100188.06;5075956;28;20024;-50
2022/08/15 04:58:16;;;;;;;8.52;5.22;;;;;;;19.49;60.58;100183.66;5074759;28;20468;-47
2022/08/15 05:00:53;;;;;;;9.10;4.90;;;;;;;19.51;60.48;100181.88;5075760;28;20103;-45
2022/08/15 05:03:19;;;;;;;16.83;5.20;;;;;;;19.57;60.56;100186.13;5075499;28;20383;-48
2022/08/15 05:05:48;;;;;;;12.45;5.15;;;;;;;19.62;60.54;100188.66;5074919;28;20017;-47
2022/08/15 05:08:15;;;;;;;12.60;4.70;;;;;;;19.66;60.66;100192.94;5075382;28;20024;-47
2022/08/15 05:10:42;;;;;;;6.75;4.55;;;;;;;19.70;60.95;100192.88;5074630;28;20050;-45
2022/08/15 05:13:13;;;;;;;9.90;4.93;;;;;;;19.77;61.22;100195.34;5075664;28;20021;-48
2022/08/15 05:15:41;;;;;;;9.38;5.10;;;;;;;19.80;61.08;100193.53;5075342;28;20028;-47
2022/08/15 05:18:06;;;;;;;8.98;4.70;;;;;;;19.85;61.37;100190.88;5074877;28;20025;-45
2022/08/15 05:20:32;;;;;;;9.43;4.53;;;;;;;19.88;61.63;100196.03;5075067;28;20021;-44
2022/08/15 05:23:13;;;;;;;10.50;4.63;;;;;;;19.95;61.67;100192.44;5075279;28;20032;-45
2022/08/15 05:25:42;;;;;;;9.57;5.18;;;;;;;20.00;62.08;100193.19;5073973;28;20038;-47
2022/08/15 05:28:08;;;;;;;9.90;5.10;;;;;;;20.05;62.20;100187.84;5075350;28;20020;-45
2022/08/15 05:30:33;;;;;;;8.98;4.93;;;;;;;20.09;62.52;100194.78;5074948;28;20064;-46
2022/08/15 05:33:14;;;;;;;13.93;5.10;;;;;;;20.11;62.48;100197.34;5074476;28;20149;-47
2022/08/15 05:35:45;;;;;;;10.35;4.90;;;;;;;20.14;62.75;100207.75;5075119;28;20032;-45
2022/08/15 05:38:46;;;;;;;11.88;5.40;;;;;;;20.16;62.73;100200.75;5075299;28;20021;-49
2022/08/15 05:41:20;;;;;;;10.63;4.65;;;;;;;20.16;63.23;100204.19;5065636;28;20037;-46
2022/08/15 05:44:11;;;;;;;10.35;4.90;;;;;;;20.20;62.94;100213.72;5074899;28;20031;-47
2022/08/15 05:46:40;;;;;;;9.90;5.03;;;;;;;20.20;63.49;100215.47;5073970;28;20044;-46
2022/08/15 05:49:30;;;;;;;10.60;5.25;;;;;;;20.19;64.00;100217.25;5074747;28;20498;-45
2022/08/15 05:52:10;;;;;;;10.35;5.10;;;;;;;20.22;63.99;100216.31;5074797;28;20120;-50
2022/08/15 05:54:56;;;;;;;11.13;4.78;;;;;;;20.24;64.04;100219.75;5073925;28;20025;-46
2022/08/15 05:57:30;;;;;;;11.02;4.97;;;;;;;20.23;64.68;100228.47;5074526;28;20029;-48
2022/08/15 06:00:00;;;;;;;19.25;5.38;;;;;;;20.25;65.23;100231.94;5073998;28;20039;-46
2022/08/15 06:02:36;;;;;;;8.88;4.97;;;;;;;20.26;65.00;100224.94;5074283;28;20025;-45
2022/08/15 06:05:15;;;;;;;8.73;5.38;;;;;;;20.31;65.33;100228.31;5074483;28;20468;-46
2022/08/15 06:07:44;;;;;;;12.38;6.00;;;;;;;20.33;65.13;100222.16;5073718;28;20025;-48
2022/08/15 06:10:23;;;;;;;10.98;5.53;;;;;;;20.43;65.15;100229.84;5074454;28;20043;-47
2022/08/15 06:12:50;;;;;;;10.13;5.20;;;;;;;20.43;65.42;100233.31;5074296;28;20103;-45
2022/08/15 06:15:22;;;;;;;7.63;5.50;;;;;;;20.44;65.44;100232.44;5073419;28;20028;-47
2022/08/15 06:17:55;;;;;;;10.38;5.28;;;;;;;20.47;65.26;100228.88;5074381;28;20074;-48
2022/08/15 06:20:24;;;;;;;11.55;6.13;;;;;;;20.50;65.62;100234.03;5074151;28;20020;-47
2022/08/15 06:23:05;;;;;;;11.55;6.07;;;;;;;20.54;65.32;100233.06;5073341;28;20037;-45
2022/08/15 06:26:05;;;;;;;9.98;6.00;;;;;;;20.63;65.30;100230.28;5073734;28;20044;-46
2022/08/15 06:28:49;;;;;;;8.60;6.03;;;;;;;20.72;65.20;100222.25;5059816;28;20041;-46
2022/08/15 06:31:20;;;;;;;17.73;6.40;;;;;;;20.78;65.19;100230.88;5073767;28;20036;-46
2022/08/15 06:34:06;;;;;;;10.38;6.55;;;;;;;20.88;65.09;100227.13;5073977;28;20021;-46
2022/08/15 06:36:55;;;;;;;9.00;6.10;;;;;;;20.92;65.07;100228.78;5072183;28;20025;-47
2022/08/15 06:39:57;;;;;;;12.90;6.82;;;;;;;20.93;64.84;100227.91;5073716;28;20051;-46
2022/08/15 06:42:34;;;;;;;10.63;7.00;;;;;;;20.96;65.05;100234.81;5048632;28;20033;-46
2022/08/15 06:45:05;;;;;;;12.98;6.85;;;;;;;20.98;65.46;100231.25;5073938;28;20111;-49
2022/08/15 06:47:32;;;;;;;12.00;7.13;;;;;;;21.02;65.51;100230.28;5073276;28;20048;-48
2022/08/15 06:50:03;;;;;;;9.00;6.40;;;;;;;21.08;65.64;100238.91;5072903;28;20039;-45
2022/08/15 06:52:29;;;;;;;10.32;7.13;;;;;;;21.08;65.97;100233.66;5073333;28;20411;-46
2022/08/15 06:54:55;;;;;;;9.88;6.43;;;;;;;21.14;65.73;100238.75;5073524;28;20482;-46
2022/08/15 06:57:29;;;;;;;11.55;6.75;;;;;;;21.16;66.01;100243.06;5072483;28;20345;-49
2022/08/15 06:59:54;;;;;;;10.73;6.35;;;;;;;21.22;65.76;100236.81;5073553;28;20103;-46
2022/08/15 07:02:42;;;;;;;11.27;6.37;;;;;;;21.27;65.73;100231.47;5073331;28;20066;-46
2022/08/15 07:05:22;;;;;;;11.48;6.72;;;;;;;21.32;65.83;100235.69;5072660;28;20032;-46
2022/08/15 07:08:01;;;;;;;7.97;5.90;;;;;;;21.38;65.90;100237.28;5073404;28;20055;-48
2022/08/15 07:10:41;;;;;;;13.18;7.43;;;;;;;21.41;65.91;100237.22;5072272;28;20045;-51
2022/08/15 07:13:19;;;;;;;10.85;6.50;;;;;;;21.48;65.82;100230.06;5073346;28;20048;-49
2022/08/15 07:16:02;;;;;;;11.55;7.05;;;;;;;21.55;65.46;100223.81;5073240;28;20177;-50
2022/08/15 07:18:34;;;;;;;15.55;6.68;;;;;;;21.57;65.52;100221.97;5072444;28;20024;-45
2022/08/15 07:21:10;;;;;;;12.27;6.45;;;;;;;21.73;65.29;100230.31;5073023;28;20494;-46
2022/08/15 07:23:57;;;;;;;11.75;6.72;;;;;;;21.66;65.38;100234.84;5072876;28;20467;-48
2022/08/15 07:26:27;;;;;;;9.73;5.82;;;;;;;21.63;66.08;100229.69;5071383;28;20190;-46
2022/08/15 07:28:56;;;;;;;12.82;6.53;;;;;;;21.56;66.18;100225.50;5072979;28;20021;-50
2022/08/15 07:31:29;;;;;;;12.52;6.55;;;;;;;21.55;66.33;100223.81;5071924;28;20081;-46
2022/08/15 07:34:04;;;;;;;12.80;7.32;;;;;;;21.46;66.83;100223.97;5073055;28;20020;-47
2022/08/15 07:36:33;;;;;;;9.63;7.10;;;;;;;21.42;67.06;100232.81;5072559;28;20459;-48
2022/08/15 07:38:59;;;;;;;12.18;7.30;;;;;;;21.47;67.44;100226.59;5072484;28;20116;-47
2022/08/15 07:41:27;;;;;;;11.90;6.78;;;;;;;21.50;67.45;100218.63;5072798;28;20078;-47
2022/08/15 07:44:00;;;;;;;10.80;7.07;;;;;;;21.59;67.18;100225.44;5072934;28;20054;-45
2022/08/15 07:46:40;;;;;;;17.13;7.25;;;;;;;21.80;66.92;100226.63;5071596;28;20388;-46
2022/08/15 07:49:20;;;;;;;12.68;6.63;;;;;;;21.90;66.33;100239.47;5072716;28;20024;-46
2022/08/15 07:51:48;;;;;;;12.52;7.32;;;;;;;21.98;66.41;100235.75;5072634;28;20082;-46
2022/08/15 07:54:47;;;;;;;13.57;7.22;;;;;;;22.06;65.78;100230.28;5071983;28;20029;-46
2022/08/15 07:57:32;;;;;;;12.82;6.75;;;;;;;22.10;65.66;100246.81;5072355;28;20399;-47
2022/08/15 08:00:03;;;;;;;15.45;7.57;;;;;;;22.18;65.55;100250.94;5072212;28;20025;-46
2022/08/15 08:02:36;;;;;;;12.75;8.18;;;;;;;22.15;65.19;100251.00;5072573;28;20027;-46
2022/08/15 08:05:02;;;;;;;14.40;7.72;;;;;;;22.22;64.85;100251.72;5072815;28;20024;-46
2022/08/15 08:07:31;;;;;;;12.15;7.63;;;;;;;22.29;65.06;100248.00;5071671;28;20361;-45
2022/08/15 08:10:20;;;;;;;12.43;8.27;;;;;;;22.42;64.49;100250.31;5072737;28;20126;-47
2022/08/15 08:13:15;;;;;;;13.27;8.40;;;;;;;22.76;63.93;100254.56;5031268;28;20111;-46
2022/08/15 08:16:03;;;;;;;14.43;8.60;;;;;;;22.75;63.54;100256.34;5071850;28;20090;-47
2022/08/15 08:19:08;;;;;;;13.02;9.23;;;;;;;22.70;63.61;100266.13;5072172;28;20353;-48
2022/08/15 08:21:43;;;;;;;14.35;8.50;;;;;;;22.66;63.62;100265.34;5070930;28;20064;-50
2022/08/15 08:24:22;;;;;;;15.70;8.68;;;;;;;22.79;63.44;100265.00;5072456;28;20024;-46
2022/08/15 08:27:06;;;;;;;14.57;8.13;;;;;;;22.83;63.21;100262.19;5072661;28;20029;-45
2022/08/15 08:29:49;;;;;;;16.48;8.60;;;;;;;22.82;63.15;100259.63;5071440;28;20099;-46
2022/08/15 08:32:36;;;;;;;16.63;8.30;;;;;;;22.91;63.57;100261.97;5072393;28;20101;-45
2022/08/15 08:35:07;;;;;;;16.52;7.60;;;;;;;23.06;62.70;100275.53;5071578;28;20411;-45
2022/08/15 08:37:54;;;;;;;15.95;8.00;;;;;;;23.09;62.34;100264.94;5072084;28;20494;-49
2022/08/15 08:44:02;;;;;;;11.98;7.32;;;;;;;23.10;61.61;100266.63;5071875;28;20453;-46
2022/08/15 08:46:41;;;;;;;15.88;8.02;;;;;;;23.13;61.73;100261.28;5071954;28;20040;-45
2022/08/15 08:49:22;;;;;;;12.52;7.75;;;;;;;23.13;62.50;100263.94;5071475;28;20029;-47
2022/08/15 08:52:04;;;;;;;12.70;7.18;;;;;;;23.05;62.15;100265.91;5072245;28;20464;-47
2022/08/15 08:54:43;;;;;;;12.52;8.23;;;;;;;22.96;62.22;100270.56;5072139;28;20030;-45
2022/08/15 08:57:11;;;;;;;10.63;7.47;;;;;;;22.99;62.48;100266.97;5071331;28;20475;-48
2022/08/15 08:59:59;;;;;;;10.57;6.70;;;;;;;22.93;62.71;100268.03;5073381;28;20027;-47
2022/08/15 09:02:35;;;;;;;11.82;7.07;;;;;;;23.05;63.12;100268.53;5075613;28;20056;-44
2022/08/15 09:05:33;;;;;;;15.40;6.88;;;;;;;23.08;62.56;100271.94;5075562;28;20024;-46
2022/08/15 09:08:07;;;;;;;15.55;6.95;;;;;;;23.05;63.68;100274.69;5075031;28;20126;-44
2022/08/15 09:10:34;;;;;;;14.50;6.75;;;;;;;22.97;63.61;100277.53;5074858;28;20430;-46
2022/08/15 09:15:50;;;;;;;13.35;6.68;;;;;;;23.01;63.64;100273.06;5075964;28;20044;-47
2022/08/15 09:18:21;;;;;;;16.75;6.97;;;;;;;23.03;63.52;100279.13;5074584;28;20025;-49
2022/08/15 09:20:48;;;;;;;13.40;6.95;;;;;;;22.92;63.86;100278.56;5075493;28;20024;-46
2022/08/15 09:23:15;;;;;;;8.70;7.10;;;;;;;22.84;63.75;100281.47;5075488;28;20052;-47
2022/08/15 09:26:06;;;;;;;14.52;8.15;;;;;;;22.80;64.03;100275.44;5074666;28;20047;-46
2022/08/15 09:28:35;;;;;;;13.10;7.10;;;;;;;22.56;65.27;100287.53;5075144;28;20408;-47
2022/08/15 09:31:25;;;;;;;12.45;7.10;;;;;;;22.51;66.38;100290.28;5074363;28;20387;-46
2022/08/15 09:34:20;;;;;;;10.98;7.63;;;;;;;22.38;67.65;100288.06;5075346;28;20047;-48
2022/08/15 09:37:09;;;;;;;14.23;8.10;;;;;;;22.26;68.01;100290.09;5020482;28;20044;-47
2022/08/15 09:40:12;;;;;;;13.77;7.70;;;;;;;22.26;67.77;100282.22;5074342;28;20085;-47
2022/08/15 09:43:00;;;;;;;14.48;8.18;;;;;;;22.30;68.99;100281.22;5059031;28;20177;-46
2022/08/15 09:45:40;;;;;;;11.15;7.15;;;;;;;22.46;67.97;100283.47;5073947;28;20028;-51
2022/08/15 09:48:42;;;;;;;12.52;7.47;;;;;;;22.68;66.70;100287.19;5074895;28;20537;-47
2022/08/15 09:51:28;;;;;;;14.20;8.13;;;;;;;23.03;65.27;100284.38;5074692;28;20060;-46
2022/08/15 09:54:17;;;;;;;11.38;7.35;;;;;;;23.43;64.62;100279.63;5074064;28;20082;-46
2022/08/15 09:56:43;;;;;;;14.05;7.82;;;;;;;23.76;62.56;100276.78;5074787;28;20032;-47
2022/08/15 09:59:19;;;;;;;11.02;7.32;;;;;;;24.09;62.08;100290.59;5074091;28;20100;-47
2022/08/15 10:01:58;;;;;;;12.73;7.23;;;;;;;24.32;60.63;100289.75;5074715;28;20062;-46
2022/08/15 10:04:49;;;;;;;10.23;7.22;;;;;;;24.53;59.88;100284.59;5074183;28;20275;-48
2022/08/15 10:07:15;;;;;;;18.85;7.78;;;;;;;24.43;59.53;100288.50;5065254;28;20037;-47
2022/08/15 10:10:09;;;;;;;18.52;8.20;;;;;;;24.54;59.51;100281.03;5074280;28;20387;-47
2022/08/15 10:12:37;;;;;;;11.05;7.45;;;;;;;24.58;58.89;100281.78;5074058;28;20031;-49
2022/08/15 10:15:40;;;;;;;14.07;7.45;;;;;;;24.59;59.86;100283.50;5073610;28;20405;-46
2022/08/15 10:18:08;;;;;;;14.88;7.88;;;;;;;24.58;59.00;100285.28;5074517;28;20031;-46
2022/08/15 10:20:33;;;;;;;15.40;7.40;;;;;;;24.81;59.33;100284.41;5073329;28;20185;-46
2022/08/15 10:23:01;;;;;;;13.93;7.27;;;;;;;24.65;58.60;100281.53;5074079;28;20486;-49
2022/08/15 10:25:35;;;;;;;12.02;6.47;;;;;;;24.74;58.09;100289.97;5074099;28;20033;-49
2022/08/15 10:28:05;;;;;;;10.07;6.32;;;;;;;24.75;57.43;100289.06;5073505;28;20025;-46
2022/08/15 10:30:37;;;;;;;10.68;6.35;;;;;;;24.67;57.44;100291.16;5073820;28;20055;-51
2022/08/15 10:33:30;;;;;;;11.07;6.40;;;;;;;24.44;58.20;100288.44;5073977;28;20051;-47
2022/08/15 10:36:13;;;;;;;10.52;6.30;;;;;;;24.43;58.62;100288.50;5073369;28;20020;-48
2022/08/15 10:38:44;;;;;;;11.95;7.15;;;;;;;24.47;58.18;100293.56;5073737;28;20484;-47
2022/08/15 10:41:18;;;;;;;11.15;6.25;;;;;;;24.53;59.32;100289.88;5073247;28;20031;-48
2022/08/15 10:43:57;;;;;;;14.75;7.15;;;;;;;24.44;58.70;100298.97;5073820;28;20119;-46
2022/08/15 10:46:24;;;;;;;12.45;6.70;;;;;;;24.38;58.63;100295.72;5073437;28;20529;-47
2022/08/15 10:49:23;;;;;;;12.48;6.30;;;;;;;24.56;58.57;100296.81;5073150;28;20107;-48
2022/08/15 10:52:07;;;;;;;11.77;6.03;;;;;;;24.51;58.97;100294.31;5053484;28;20056;-51
2022/08/15 10:54:42;;;;;;;8.30;6.13;;;;;;;24.61;58.06;100295.69;5073264;28;20109;-47
2022/08/15 10:57:08;;;;;;;9.65;6.43;;;;;;;24.59;58.77;100299.31;5072812;28;20392;-47
2022/08/15 10:59:37;;;;;;;9.68;6.43;;;;;;;24.46;59.33;100294.47;5073479;28;20127;-46
2022/08/15 11:02:15;;;;;;;10.25;6.60;;;;;;;24.32;58.82;100295.03;5073560;28;20099;-47
2022/08/15 11:04:42;;;;;;;12.15;6.43;;;;;;;24.18;59.74;100302.53;5073187;28;20050;-46
2022/08/15 11:07:27;;;;;;;11.20;6.20;;;;;;;24.14;59.25;100303.56;5073619;28;20056;-47
2022/08/15 11:09:56;;;;;;;12.23;6.47;;;;;;;24.08;59.73;100309.91;5072691;28;20028;-49
2022/08/15 11:12:24;;;;;;;9.35;6.57;;;;;;;23.93;60.73;100306.03;5073234;28;20028;-47
2022/08/15 11:14:59;;;;;;;11.30;6.25;;;;;;;23.91;60.83;100297.34;5073129;28;20417;-46
2022/08/15 11:17:28;;;;;;;8.93;6.40;;;;;;;23.97;61.22;100302.38;5072212;28;20024;-46
2022/08/15 11:20:14;;;;;;;10.32;5.88;;;;;;;23.85;61.33;100305.41;5073354;28;20099;-47
2022/08/15 11:22:51;;;;;;;10.43;6.22;;;;;;;23.81;61.78;100295.91;5072657;28;20030;-47
2022/08/15 11:25:21;;;;;;;10.25;5.88;;;;;;;23.76;61.89;100297.84;5072316;28;20024;-47
2022/08/15 11:27:58;;;;;;;9.80;6.13;;;;;;;23.84;61.14;100301.06;5072931;28;20361;-46
2022/08/15 11:30:25;;;;;;;10.60;6.53;;;;;;;23.77;61.21;100304.81;5072080;28;20034;-50
2022/08/15 11:32:52;;;;;;;14.20;7.18;;;;;;;23.78;61.40;100306.53;5072957;28;20029;-46
2022/08/15 11:35:29;;;;;;;10.32;6.60;;;;;;;23.84;61.62;100301.91;5072952;28;20063;-46
2022/08/15 11:37:58;;;;;;;8.57;5.40;;;;;;;24.06;61.16;100313.50;5072128;28;20523;-50
2022/08/15 11:40:31;;;;;;;10.35;6.45;;;;;;;24.13;60.91;100307.97;5072575;28;20363;-47
2022/08/15 11:42:59;;;;;;;10.18;6.30;;;;;;;24.19;61.13;100306.03;5073034;28;20021;-48
2022/08/15 11:45:30;;;;;;;15.20;6.13;;;;;;;24.27;60.29;100307.50;5072008;28;20021;-47
2022/08/15 11:47:58;;;;;;;13.15;5.93;;;;;;;24.75;59.44;100311.03;5072745;28;20037;-51
2022/08/15 11:50:28;;;;;;;12.93;6.47;;;;;;;24.85;58.64;100311.50;5072605;28;20111;-47
2022/08/15 11:52:57;;;;;;;11.73;5.85;;;;;;;24.67;60.22;100318.34;5072322;28;20024;-48
2022/08/15 11:55:25;;;;;;;12.52;6.55;;;;;;;24.72;59.83;100319.03;5072804;28;20044;-46
2022/08/15 11:58:21;;;;;;;10.93;6.45;;;;;;;24.82;60.19;100312.50;5072780;28;20024;-50